createdAt,value
2018-07-09T00:00:36.337Z,1033.08
2018-07-09T00:01:36.335Z,1033.07
2018-07-09T00:02:36.345Z,1033.08
2018-07-09T00:03:36.331Z,1033.08
2018-07-09T00:04:36.329Z,1033.12
2018-07-09T00:05:36.327Z,1033.09
2018-07-09T00:06:36.325Z,1033.06
2018-07-09T00:07:36.322Z,1033.07
2018-07-09T00:08:36.321Z,1033.09
2018-07-09T00:09:36.321Z,1033.09
2018-07-09T00:10:36.314Z,1033.05
2018-07-09T00:11:36.314Z,1033.05
2018-07-09T00:12:36.311Z,1033.08
2018-07-09T00:13:36.313Z,1033.01
2018-07-09T00:14:36.306Z,1033
2018-07-09T00:15:36.305Z,1032.97
2018-07-09T00:16:36.303Z,1032.98
2018-07-09T00:17:36.308Z,1032.92
2018-07-09T00:18:36.299Z,1032.93
2018-07-09T00:19:36.298Z,1033
2018-07-09T00:20:36.294Z,1032.98
2018-07-09T00:21:36.292Z,1032.96
2018-07-09T00:22:36.290Z,1032.99
2018-07-09T00:23:36.288Z,1032.96
2018-07-09T00:24:36.287Z,1033.01
2018-07-09T00:25:36.284Z,1032.99
2018-07-09T00:26:36.282Z,1033.06
2018-07-09T00:27:36.283Z,1033.08
2018-07-09T00:28:36.279Z,1033.07
2018-07-09T00:29:36.276Z,1033.08
2018-07-09T00:30:36.277Z,1033.09
2018-07-09T00:31:36.272Z,1033.12
2018-07-09T00:32:36.273Z,1033.08
2018-07-09T00:33:36.267Z,1033.07
2018-07-09T00:34:36.265Z,1033.06
2018-07-09T00:35:36.264Z,1033.07
2018-07-09T00:36:36.261Z,1033.04
2018-07-09T00:37:36.260Z,1033.03
2018-07-09T00:38:36.257Z,1033.04
2018-07-09T00:39:36.256Z,1033.01
2018-07-09T00:40:36.253Z,1033.03
2018-07-09T00:41:36.251Z,1033.03
2018-07-09T00:42:36.252Z,1033.08
2018-07-09T00:43:36.250Z,1033.06
2018-07-09T00:44:36.244Z,1033.08
2018-07-09T00:45:36.242Z,1033.12
2018-07-09T00:46:36.242Z,1033.14
2018-07-09T00:47:36.238Z,1033.16
2018-07-09T00:48:36.236Z,1033.18
2018-07-09T00:49:36.234Z,1033.17
2018-07-09T00:50:36.233Z,1033.21
2018-07-09T00:51:36.237Z,1033.23
2018-07-09T00:52:36.227Z,1033.27
2018-07-09T00:53:36.226Z,1033.25
2018-07-09T00:54:36.222Z,1033.25
2018-07-09T00:55:36.220Z,1033.3
2018-07-09T00:56:36.218Z,1033.33
2018-07-09T00:57:36.222Z,1033.38
2018-07-09T00:58:36.222Z,1033.43
2018-07-09T00:59:36.212Z,1033.44
2018-07-09T01:00:36.210Z,1033.47
2018-07-09T01:01:36.208Z,1033.5
2018-07-09T01:02:36.209Z,1033.49
2018-07-09T01:03:36.202Z,1033.5
2018-07-09T01:04:36.202Z,1033.5
2018-07-09T01:05:36.197Z,1033.53
2018-07-09T01:06:36.194Z,1033.54
2018-07-09T01:07:36.192Z,1033.52
2018-07-09T01:08:36.190Z,1033.54
2018-07-09T01:09:36.187Z,1033.57
2018-07-09T01:10:36.185Z,1033.63
2018-07-09T01:11:36.182Z,1033.62
2018-07-09T01:12:36.181Z,1033.64
2018-07-09T01:13:36.177Z,1033.66
2018-07-09T01:14:36.175Z,1033.68
2018-07-09T01:15:36.173Z,1033.68
2018-07-09T01:16:36.169Z,1033.68
2018-07-09T01:17:36.167Z,1033.69
2018-07-09T01:18:36.165Z,1033.73
2018-07-09T01:19:36.162Z,1033.7
2018-07-09T01:20:36.160Z,1033.69
2018-07-09T01:21:36.161Z,1033.7
2018-07-09T01:22:36.153Z,1033.67
2018-07-09T01:23:36.152Z,1033.65
2018-07-09T01:24:36.150Z,1033.65
2018-07-09T01:25:36.146Z,1033.62
2018-07-09T01:26:36.143Z,1033.6
2018-07-09T01:27:36.139Z,1033.6
2018-07-09T01:28:36.138Z,1033.57
2018-07-09T01:29:36.136Z,1033.54
2018-07-09T01:30:36.135Z,1033.54
2018-07-09T01:31:36.128Z,1033.51
2018-07-09T01:32:36.126Z,1033.49
2018-07-09T01:33:36.123Z,1033.5
2018-07-09T01:34:36.122Z,1033.46
2018-07-09T01:35:36.119Z,1033.48
2018-07-09T01:36:36.115Z,1033.46
2018-07-09T01:37:36.113Z,1033.5
2018-07-09T01:38:36.109Z,1033.5
2018-07-09T01:39:36.107Z,1033.57
2018-07-09T01:40:36.111Z,1033.57
2018-07-09T01:41:36.103Z,1033.58
2018-07-09T01:42:36.097Z,1033.61
2018-07-09T01:43:36.095Z,1033.63
2018-07-09T01:44:36.093Z,1033.66
2018-07-09T01:45:36.090Z,1033.67
2018-07-09T01:46:36.087Z,1033.71
2018-07-09T01:47:36.084Z,1033.72
2018-07-09T01:48:36.081Z,1033.74
2018-07-09T01:49:36.078Z,1033.75
2018-07-09T01:50:36.075Z,1033.75
2018-07-09T01:51:36.323Z,1033.76
2018-07-09T01:52:36.069Z,1033.76
2018-07-09T01:53:36.066Z,1033.74
2018-07-09T01:54:36.063Z,1033.77
2018-07-09T01:55:36.067Z,1033.73
2018-07-09T01:56:36.057Z,1033.76
2018-07-09T01:57:36.054Z,1033.74
2018-07-09T01:58:36.051Z,1033.76
2018-07-09T01:59:36.049Z,1033.76
2018-07-09T02:00:36.044Z,1033.79
2018-07-09T02:01:36.042Z,1033.81
2018-07-09T02:02:36.039Z,1033.79
2018-07-09T02:03:36.036Z,1033.82
2018-07-09T02:04:36.033Z,1033.83
2018-07-09T02:05:36.030Z,1033.82
2018-07-09T02:06:36.026Z,1033.82
2018-07-09T02:07:36.024Z,1033.9
2018-07-09T02:08:36.020Z,1033.86
2018-07-09T02:09:36.017Z,1033.89
2018-07-09T02:10:36.014Z,1033.92
2018-07-09T02:11:36.010Z,1033.92
2018-07-09T02:12:36.007Z,1033.93
2018-07-09T02:13:36.007Z,1033.93
2018-07-09T02:14:36.002Z,1033.91
2018-07-09T02:15:35.997Z,1033.89
2018-07-09T02:16:35.994Z,1033.9
2018-07-09T02:17:35.991Z,1033.83
2018-07-09T02:18:35.990Z,1033.8
2018-07-09T02:19:35.983Z,1033.79
2018-07-09T02:20:36.021Z,1033.75
2018-07-09T02:21:35.979Z,1033.77
2018-07-09T02:22:35.973Z,1033.76
2018-07-09T02:23:35.971Z,1033.76
2018-07-09T02:24:35.972Z,1033.75
2018-07-09T02:25:35.964Z,1033.73
2018-07-09T02:26:35.964Z,1033.68
2018-07-09T02:27:35.958Z,1033.64
2018-07-09T02:28:35.954Z,1033.62
2018-07-09T02:29:35.950Z,1033.62
2018-07-09T02:30:35.948Z,1033.63
2018-07-09T02:31:35.953Z,1033.62
2018-07-09T02:32:35.942Z,1033.62
2018-07-09T02:33:35.938Z,1033.64
2018-07-09T02:34:35.939Z,1033.66
2018-07-09T02:35:35.932Z,1033.61
2018-07-09T02:36:35.931Z,1033.66
2018-07-09T02:37:35.925Z,1033.68
2018-07-09T02:38:35.924Z,1033.69
2018-07-09T02:39:35.918Z,1033.73
2018-07-09T02:40:35.919Z,1033.74
2018-07-09T02:41:35.912Z,1033.75
2018-07-09T02:42:35.908Z,1033.77
2018-07-09T02:43:35.907Z,1033.79
2018-07-09T02:44:35.901Z,1033.79
2018-07-09T02:45:35.898Z,1033.8
2018-07-09T02:46:35.897Z,1033.8
2018-07-09T02:47:35.896Z,1033.83
2018-07-09T02:48:35.889Z,1033.83
2018-07-09T02:49:35.886Z,1033.86
2018-07-09T02:50:35.882Z,1033.85
2018-07-09T02:51:35.877Z,1033.86
2018-07-09T02:52:35.875Z,1033.88
2018-07-09T02:53:35.872Z,1033.92
2018-07-09T02:54:35.868Z,1033.88
2018-07-09T02:55:35.865Z,1033.97
2018-07-09T02:56:35.861Z,1033.98
2018-07-09T02:57:35.869Z,1033.98
2018-07-09T02:58:35.855Z,1034.01
2018-07-09T02:59:35.850Z,1034.01
2018-07-09T03:00:35.847Z,1034
2018-07-09T03:01:35.843Z,1034.04
2018-07-09T03:02:35.840Z,1034.04
2018-07-09T03:03:35.837Z,1034.04
2018-07-09T03:04:35.832Z,1034.06
2018-07-09T03:05:35.829Z,1034.05
2018-07-09T03:06:35.832Z,1034.05
2018-07-09T03:07:35.823Z,1034.08
2018-07-09T03:08:35.820Z,1034.09
2018-07-09T03:09:35.816Z,1034.08
2018-07-09T03:10:35.815Z,1034.12
2018-07-09T03:11:35.811Z,1034.13
2018-07-09T03:12:35.808Z,1034.1
2018-07-09T03:13:35.801Z,1034.13
2018-07-09T03:14:35.800Z,1034.13
2018-07-09T03:15:35.795Z,1034.18
2018-07-09T03:16:35.792Z,1034.15
2018-07-09T03:17:35.788Z,1034.16
2018-07-09T03:18:35.785Z,1034.14
2018-07-09T03:19:35.784Z,1034.14
2018-07-09T03:20:35.776Z,1034.13
2018-07-09T03:21:35.773Z,1034.13
2018-07-09T03:22:35.769Z,1034.14
2018-07-09T03:23:35.767Z,1034.13
2018-07-09T03:24:35.761Z,1034.15
2018-07-09T03:25:35.758Z,1034.12
2018-07-09T03:26:35.761Z,1034.1
2018-07-09T03:27:35.751Z,1034.08
2018-07-09T03:28:35.747Z,1034.06
2018-07-09T03:29:35.758Z,1034.06
2018-07-09T03:30:35.740Z,1034.05
2018-07-09T03:31:35.736Z,1034.03
2018-07-09T03:32:35.732Z,1033.96
2018-07-09T03:33:35.729Z,1033.89
2018-07-09T03:34:35.725Z,1033.84
2018-07-09T03:35:35.724Z,1033.72
2018-07-09T03:36:35.718Z,1033.58
2018-07-09T03:37:35.714Z,1033.5
2018-07-09T03:38:35.711Z,1033.39
2018-07-09T03:39:35.707Z,1033.27
2018-07-09T03:40:35.702Z,1033.13
2018-07-09T03:41:35.704Z,1032.97
2018-07-09T03:42:35.696Z,1032.86
2018-07-09T03:43:35.699Z,1032.7
2018-07-09T03:44:35.695Z,1032.63
2018-07-09T03:45:35.687Z,1032.47
2018-07-09T03:46:35.684Z,1032.33
2018-07-09T03:47:35.681Z,1032.23
2018-07-09T03:48:35.679Z,1032.12
2018-07-09T03:49:35.677Z,1032
2018-07-09T03:50:35.676Z,1031.84
2018-07-09T03:51:35.672Z,1031.75
2018-07-09T03:52:35.670Z,1031.6
2018-07-09T03:53:35.666Z,1031.51
2018-07-09T03:54:35.668Z,1031.36
2018-07-09T03:55:35.663Z,1031.29
2018-07-09T03:56:35.662Z,1031.13
2018-07-09T03:57:35.662Z,1031.05
2018-07-09T03:58:35.662Z,1030.95
2018-07-09T03:59:35.657Z,1030.82
2018-07-09T04:00:35.657Z,1030.79
2018-07-09T04:01:35.655Z,1030.68
2018-07-09T04:02:35.655Z,1030.57
2018-07-09T04:03:35.654Z,1030.42
2018-07-09T04:04:35.652Z,1030.38
2018-07-09T04:05:35.653Z,1030.31
2018-07-09T04:06:36.057Z,1030.26
2018-07-09T04:08:35.654Z,1030.05
2018-07-09T04:09:35.656Z,1029.96
2018-07-09T04:10:35.656Z,1029.87
2018-07-09T04:11:35.657Z,1029.78
2018-07-09T04:12:35.659Z,1029.76
2018-07-09T04:13:35.666Z,1029.71
2018-07-09T04:14:35.680Z,1029.67
2018-07-09T04:15:35.669Z,1029.63
2018-07-09T04:16:35.664Z,1029.55
2018-07-09T04:17:35.666Z,1029.5
2018-07-09T04:18:35.669Z,1029.38
2018-07-09T04:19:35.671Z,1029.28
2018-07-09T04:20:35.674Z,1029.21
2018-07-09T04:21:35.676Z,1029.13
2018-07-09T04:22:35.681Z,1028.98
2018-07-09T04:23:35.683Z,1028.94
2018-07-09T04:24:35.687Z,1028.89
2018-07-09T04:25:35.691Z,1028.76
2018-07-09T04:26:35.694Z,1028.72
2018-07-09T04:27:35.949Z,1028.69
2018-07-09T04:28:35.702Z,1028.6
2018-07-09T04:29:35.710Z,1028.52
2018-07-09T04:30:35.712Z,1028.49
2018-07-09T04:31:35.724Z,1028.45
2018-07-09T04:32:35.723Z,1028.37
2018-07-09T04:33:35.726Z,1028.33
2018-07-09T04:34:35.736Z,1028.28
2018-07-09T04:35:35.742Z,1028.2
2018-07-09T04:36:35.743Z,1028.12
2018-07-09T04:37:35.748Z,1028.07
2018-07-09T04:38:35.755Z,1027.98
2018-07-09T04:39:35.761Z,1027.94
2018-07-09T04:40:35.768Z,1027.88
2018-07-09T04:41:35.773Z,1027.82
2018-07-09T04:42:35.785Z,1027.79
2018-07-09T04:43:35.787Z,1027.73
2018-07-09T04:44:35.797Z,1027.67
2018-07-09T04:45:35.801Z,1027.63
2018-07-09T04:46:35.809Z,1027.58
2018-07-09T04:47:35.816Z,1027.48
2018-07-09T04:48:35.825Z,1027.43
2018-07-09T04:49:35.831Z,1027.42
2018-07-09T04:50:35.842Z,1027.41
2018-07-09T04:51:35.848Z,1027.35
2018-07-09T04:52:35.856Z,1027.29
2018-07-09T04:53:35.921Z,1027.25
2018-07-09T04:54:35.875Z,1027.22
2018-07-09T04:55:35.879Z,1027.17
2018-07-09T04:56:35.888Z,1027.11
2018-07-09T04:57:35.898Z,1027.05
2018-07-09T04:58:35.906Z,1027.07
2018-07-09T04:59:35.915Z,1027.06
2018-07-09T05:00:35.926Z,1027.06
2018-07-09T05:01:35.934Z,1026.94
2018-07-09T05:02:35.943Z,1026.91
2018-07-09T05:03:35.952Z,1026.89
2018-07-09T05:04:35.961Z,1026.83
2018-07-09T05:05:35.982Z,1026.83
2018-07-09T05:06:35.984Z,1026.7
2018-07-09T05:07:35.991Z,1026.69
2018-07-09T05:08:36.000Z,1026.62
2018-07-09T05:09:36.010Z,1026.55
2018-07-09T05:10:36.023Z,1026.56
2018-07-09T05:11:36.031Z,1026.6
2018-07-09T05:12:36.040Z,1026.61
2018-07-09T05:13:36.050Z,1026.68
2018-07-09T05:14:36.060Z,1026.59
2018-07-09T05:15:36.071Z,1026.5
2018-07-09T05:16:36.081Z,1026.54
2018-07-09T05:17:36.091Z,1026.52
2018-07-09T05:18:36.102Z,1026.54
2018-07-09T05:19:36.114Z,1026.59
2018-07-09T05:20:36.132Z,1026.61
2018-07-09T05:21:36.133Z,1026.61
2018-07-09T05:22:36.145Z,1026.72
2018-07-09T05:23:36.156Z,1026.72
2018-07-09T05:24:36.172Z,1026.66
2018-07-09T05:25:36.178Z,1026.62
2018-07-09T05:26:36.190Z,1026.55
2018-07-09T05:27:36.201Z,1026.59
2018-07-09T05:28:36.212Z,1026.59
2018-07-09T05:29:36.223Z,1026.7
2018-07-09T05:30:36.237Z,1026.72
2018-07-09T05:31:36.246Z,1026.78
2018-07-09T05:32:36.260Z,1026.72
2018-07-09T05:33:36.269Z,1026.71
2018-07-09T05:34:36.280Z,1026.77
2018-07-09T05:35:36.296Z,1026.76
2018-07-09T05:36:36.303Z,1026.62
2018-07-09T05:37:36.314Z,1026.56
2018-07-09T05:38:36.328Z,1026.53
2018-07-09T05:39:36.338Z,1026.42
2018-07-09T05:40:36.350Z,1026.35
2018-07-09T05:41:36.364Z,1026.25
2018-07-09T05:42:36.373Z,1026.17
2018-07-09T05:43:36.384Z,1026.09
2018-07-09T05:44:36.396Z,1026.03
2018-07-09T05:45:36.409Z,1026.04
2018-07-09T05:46:36.421Z,1026.06
2018-07-09T05:47:36.442Z,1025.99
2018-07-09T05:48:36.446Z,1025.9
2018-07-09T05:49:36.458Z,1025.94
2018-07-09T05:50:36.477Z,1025.91
2018-07-09T05:51:36.486Z,1025.88
2018-07-09T05:52:36.497Z,1025.79
2018-07-09T05:53:36.510Z,1025.82
2018-07-09T05:54:36.522Z,1025.77
2018-07-09T05:55:36.535Z,1025.76
2018-07-09T05:56:36.548Z,1025.9
2018-07-09T05:57:36.562Z,1025.94
2018-07-09T05:58:36.574Z,1025.94
2018-07-09T05:59:36.589Z,1025.95
2018-07-09T06:00:36.603Z,1025.85
2018-07-09T06:01:36.615Z,1025.79
2018-07-09T06:02:36.629Z,1025.74
2018-07-09T06:03:36.643Z,1025.68
2018-07-09T06:04:36.657Z,1025.86
2018-07-09T06:05:36.751Z,1025.72
2018-07-09T06:06:36.684Z,1025.27
2018-07-09T06:07:36.700Z,1025.96
2018-07-09T06:08:36.715Z,1026.14
2018-07-09T06:09:36.726Z,1025.46
2018-07-09T06:10:36.740Z,1025.61
2018-07-09T06:11:36.828Z,1025.62
2018-07-09T06:12:36.768Z,1025.44
2018-07-09T06:13:36.882Z,1026.03
2018-07-09T06:14:36.797Z,1025.97
2018-07-09T06:15:36.811Z,1026.56
2018-07-09T06:16:36.824Z,1026.82
2018-07-09T06:17:36.838Z,1027.15
2018-07-09T06:18:36.852Z,1026.21
2018-07-09T06:19:36.880Z,1027.03
2018-07-09T06:20:36.880Z,1027.34
2018-07-09T06:21:36.893Z,1026.7
2018-07-09T06:22:36.907Z,1026.57
2018-07-09T06:23:36.919Z,1027.01
2018-07-09T06:24:36.933Z,1026.21
2018-07-09T06:25:36.948Z,1025.73
2018-07-09T06:26:36.962Z,1026.12
2018-07-09T06:27:36.970Z,1026.71
2018-07-09T06:28:36.983Z,1026.94
2018-07-09T06:29:36.996Z,1026.43
2018-07-09T06:30:37.012Z,1026.19
2018-07-09T06:31:37.098Z,1025.68
2018-07-09T06:32:37.034Z,1025.01
2018-07-09T06:33:37.047Z,1025.32
2018-07-09T06:34:37.065Z,1025.6
2018-07-09T06:35:37.076Z,1025.69
2018-07-09T06:36:37.086Z,1025.8
2018-07-09T06:37:37.099Z,1025.63
2018-07-09T06:38:37.111Z,1025.61
2018-07-09T06:39:37.133Z,1025.31
2018-07-09T06:40:37.137Z,1024.85
2018-07-09T06:41:37.150Z,1025.12
2018-07-09T06:42:37.163Z,1024.63
2018-07-09T06:43:37.177Z,1024.73
2018-07-09T06:44:37.199Z,1024.39
2018-07-09T06:45:37.203Z,1024.61
2018-07-09T06:46:37.217Z,1024.48
2018-07-09T06:47:37.230Z,1023.85
2018-07-09T06:48:37.244Z,1024.5
2018-07-09T06:49:37.262Z,1024.35
2018-07-09T06:50:37.273Z,1023.7
2018-07-09T06:51:37.297Z,1024.16
2018-07-09T06:52:37.301Z,1024.89
2018-07-09T06:53:37.316Z,1024.76
2018-07-09T06:54:37.331Z,1024.49
2018-07-09T06:55:37.346Z,1025.03
2018-07-09T06:56:37.360Z,1025.06
2018-07-09T06:57:37.375Z,1025.78
2018-07-09T06:58:37.389Z,1025.35
2018-07-09T06:59:37.404Z,1025.3
2018-07-09T07:00:37.432Z,1024.94
2018-07-09T07:01:37.433Z,1025.55
2018-07-09T07:02:37.448Z,1025.59
2018-07-09T07:03:37.461Z,1025.47
2018-07-09T07:04:37.475Z,1025.99
2018-07-09T07:05:37.489Z,1025.63
2018-07-09T07:06:37.504Z,1025.77
2018-07-09T07:07:37.517Z,1026.63
2018-07-09T07:08:37.599Z,1025.47
2018-07-09T07:09:37.546Z,1025.33
2018-07-09T07:10:37.561Z,1024.78
2018-07-09T07:11:37.575Z,1025.53
2018-07-09T07:12:37.588Z,1024.85
2018-07-09T07:13:37.600Z,1024.23
2018-07-09T07:14:37.613Z,1024.69
2018-07-09T07:15:37.627Z,1024.85
2018-07-09T07:16:37.641Z,1024.8
2018-07-09T07:17:37.661Z,1024.55
2018-07-09T07:18:37.669Z,1023.89
2018-07-09T07:19:37.685Z,1023.99
2018-07-09T07:20:37.699Z,1023.5
2018-07-09T07:21:37.714Z,1023.78
2018-07-09T07:22:37.931Z,1024.43
2018-07-09T07:23:37.746Z,1025.03
2018-07-09T07:24:37.759Z,1025.4
2018-07-09T07:25:37.775Z,1025.81
2018-07-09T07:26:37.818Z,1026.28
2018-07-09T07:27:37.803Z,1026.62
2018-07-09T07:28:37.817Z,1026.97
2018-07-09T07:29:37.831Z,1027.36
2018-07-09T07:30:37.845Z,1028.03
2018-07-09T07:31:37.858Z,1026.92
2018-07-09T07:32:37.883Z,1027.05
2018-07-09T07:33:37.886Z,1027.2
2018-07-09T07:34:37.954Z,1026.93
2018-07-09T07:35:37.909Z,1026.88
2018-07-09T07:36:37.922Z,1027.45
2018-07-09T07:37:37.935Z,1026.59
2018-07-09T07:38:37.947Z,1025.77
2018-07-09T07:39:37.964Z,1025.24
2018-07-09T07:40:37.975Z,1025.13
2018-07-09T07:41:37.991Z,1024.73
2018-07-09T07:42:37.998Z,1024.23
2018-07-09T07:43:38.016Z,1024.21
2018-07-09T07:44:38.024Z,1024.95
2018-07-09T07:45:38.038Z,1025.27
2018-07-09T07:46:38.051Z,1024.71
2018-07-09T07:47:38.066Z,1024.24
2018-07-09T07:48:38.078Z,1023.88
2018-07-09T07:49:38.096Z,1023.72
2018-07-09T07:50:38.248Z,1023.67
2018-07-09T07:51:38.121Z,1023.58
2018-07-09T07:52:38.139Z,1023.54
2018-07-09T07:53:38.153Z,1023.53
2018-07-09T07:54:38.177Z,1023.49
2018-07-09T07:55:38.184Z,1023.55
2018-07-09T07:56:38.200Z,1023.51
2018-07-09T07:57:38.216Z,1023.67
2018-07-09T07:58:38.235Z,1023.76
2018-07-09T07:59:38.249Z,1023.74
2018-07-09T08:00:38.266Z,1023.87
2018-07-09T08:01:38.281Z,1023.86
2018-07-09T08:02:38.297Z,1023.92
2018-07-09T08:03:38.314Z,1024.12
2018-07-09T08:04:38.330Z,1024.28
2018-07-09T08:05:38.349Z,1024.42
2018-07-09T08:06:38.362Z,1024.53
2018-07-09T08:07:38.381Z,1024.78
2018-07-09T08:08:38.394Z,1025.06
2018-07-09T08:09:38.481Z,1025.3
2018-07-09T08:10:38.431Z,1025.5
2018-07-09T08:11:48.553Z,1025.65
2018-07-09T08:13:29.007Z,1026.06
2018-07-09T08:14:28.219Z,1025.98
2018-07-09T08:15:28.236Z,1025.89
2018-07-09T08:16:28.247Z,1025.65
2018-07-09T08:17:28.262Z,1025.35
2018-07-09T08:18:28.277Z,1025.14
2018-07-09T08:19:28.299Z,1024.63
2018-07-09T08:20:28.306Z,1024.31
2018-07-09T08:21:28.321Z,1024.04
2018-07-09T08:22:28.336Z,1023.74
2018-07-09T08:23:28.352Z,1023.5
2018-07-09T08:24:28.371Z,1023.34
2018-07-09T08:25:28.491Z,1023.29
2018-07-09T08:26:28.402Z,1023.34
2018-07-09T08:27:28.412Z,1023.32
2018-07-09T08:28:28.429Z,1023.45
2018-07-09T08:29:28.445Z,1023.61
2018-07-09T08:30:28.459Z,1023.71
2018-07-09T08:31:28.519Z,1023.86
2018-07-09T08:32:28.498Z,1023.98
2018-07-09T08:33:28.510Z,1024.01
2018-07-09T08:34:28.525Z,1024.06
2018-07-09T08:35:28.540Z,1023.98
2018-07-09T08:36:28.560Z,1023.9
2018-07-09T08:37:28.570Z,1023.81
2018-07-09T08:38:28.590Z,1023.73
2018-07-09T08:39:28.602Z,1023.63
2018-07-09T08:40:28.618Z,1023.52
2018-07-09T08:41:28.633Z,1023.5
2018-07-09T08:42:28.649Z,1023.57
2018-07-09T08:43:28.666Z,1023.59
2018-07-09T08:44:28.681Z,1023.63
2018-07-09T08:45:28.697Z,1023.65
2018-07-09T08:46:28.714Z,1023.63
2018-07-09T08:47:28.811Z,1023.62
2018-07-09T08:48:28.745Z,1023.73
2018-07-09T08:49:28.762Z,1023.8
2018-07-09T08:50:28.777Z,1023.92
2018-07-09T08:51:28.795Z,1023.97
2018-07-09T08:52:28.826Z,1023.91
2018-07-09T08:53:28.825Z,1023.95
2018-07-09T08:54:28.841Z,1024.61
2018-07-09T08:55:28.857Z,1025.33
2018-07-09T08:56:28.871Z,1025.25
2018-07-09T08:57:28.887Z,1025.3
2018-07-09T08:58:28.906Z,1025.46
2018-07-09T08:59:28.917Z,1025.92
2018-07-09T09:00:28.934Z,1026.39
2018-07-09T09:01:28.948Z,1026.85
2018-07-09T09:02:28.974Z,1027.17
2018-07-09T09:03:28.973Z,1027.44
2018-07-09T09:04:28.991Z,1027.74
2018-07-09T09:05:28.998Z,1028
2018-07-09T09:06:29.011Z,1028.16
2018-07-09T09:07:29.027Z,1028.21
2018-07-09T09:08:29.036Z,1028.4
2018-07-09T09:09:29.052Z,1028.59
2018-07-09T09:10:29.107Z,1028.8
2018-07-09T09:11:29.070Z,1028.96
2018-07-09T09:12:29.093Z,1029.07
2018-07-09T09:13:29.096Z,1029.19
2018-07-09T09:14:29.101Z,1029.27
2018-07-09T09:15:29.128Z,1029.38
2018-07-09T09:16:29.169Z,1029.43
2018-07-09T09:17:29.130Z,1029.45
2018-07-09T09:18:29.140Z,1029.55
2018-07-09T09:19:29.149Z,1029.54
2018-07-09T09:20:29.159Z,1029.71
2018-07-09T09:21:29.166Z,1029.76
2018-07-09T09:22:29.175Z,1029.86
2018-07-09T09:23:29.183Z,1029.93
2018-07-09T09:24:29.203Z,1029.96
2018-07-09T09:25:29.220Z,1029.97
2018-07-09T09:26:29.208Z,1030.06
2018-07-09T09:27:29.242Z,1030.06
2018-07-09T09:28:29.223Z,1030.02
2018-07-09T09:29:29.230Z,1030.07
2018-07-09T09:30:29.237Z,1030.08
2018-07-09T09:31:29.309Z,1030.13
2018-07-09T09:32:29.251Z,1030.16
2018-07-09T09:33:29.257Z,1030.1
2018-07-09T09:34:29.265Z,1030.21
2018-07-09T09:35:29.274Z,1030.18
2018-07-09T09:36:29.290Z,1030.23
2018-07-09T09:37:29.344Z,1030.15
2018-07-09T09:38:29.294Z,1030.11
2018-07-09T09:39:29.296Z,1030.24
2018-07-09T09:40:29.301Z,1030.16
2018-07-09T09:41:29.308Z,1030.12
2018-07-09T09:42:29.316Z,1030.08
2018-07-09T09:43:29.318Z,1030.16
2018-07-09T09:44:29.325Z,1030.06
2018-07-09T09:45:29.331Z,1030.03
2018-07-09T09:46:29.336Z,1030.01
2018-07-09T09:47:29.353Z,1029.91
2018-07-09T09:48:29.348Z,1029.88
2018-07-09T09:49:29.425Z,1029.82
2018-07-09T09:50:29.359Z,1029.72
2018-07-09T09:51:29.365Z,1029.65
2018-07-09T09:52:29.371Z,1029.65
2018-07-09T09:53:29.376Z,1029.57
2018-07-09T09:54:29.381Z,1029.56
2018-07-09T09:55:29.387Z,1029.67
2018-07-09T09:56:29.393Z,1029.65
2018-07-09T09:57:29.399Z,1029.66
2018-07-09T09:58:29.410Z,1029.74
2018-07-09T09:59:29.415Z,1029.73
2018-07-09T10:00:29.423Z,1029.69
2018-07-09T10:01:29.422Z,1029.75
2018-07-09T10:02:29.429Z,1029.67
2018-07-09T10:03:29.433Z,1029.82
2018-07-09T10:04:29.440Z,1029.74
2018-07-09T10:05:29.444Z,1029.71
2018-07-09T10:06:29.461Z,1029.73
2018-07-09T10:07:29.456Z,1029.69
2018-07-09T10:08:29.468Z,1029.61
2018-07-09T10:09:29.466Z,1029.53
2018-07-09T10:10:29.472Z,1029.47
2018-07-09T10:11:29.479Z,1029.33
2018-07-09T10:12:29.484Z,1029.26
2018-07-09T10:13:29.492Z,1029.2
2018-07-09T10:14:29.498Z,1029.16
2018-07-09T10:15:29.502Z,1029.05
2018-07-09T10:16:29.522Z,1029.18
2018-07-09T10:17:29.527Z,1029.17
2018-07-09T10:18:29.530Z,1029.17
2018-07-09T10:19:29.526Z,1029.22
2018-07-09T10:20:29.532Z,1029.28
2018-07-09T10:21:29.539Z,1029.25
2018-07-09T10:22:29.545Z,1029.23
2018-07-09T10:23:29.584Z,1029.15
2018-07-09T10:24:29.560Z,1029.12
2018-07-09T10:25:29.571Z,1029.16
2018-07-09T10:26:29.569Z,1029.15
2018-07-09T10:27:29.575Z,1029.24
2018-07-09T10:28:29.585Z,1029.24
2018-07-09T10:29:29.588Z,1029.35
2018-07-09T10:30:29.666Z,1029.35
2018-07-09T10:31:29.601Z,1029.38
2018-07-09T10:32:29.607Z,1029.38
2018-07-09T10:33:29.619Z,1029.38
2018-07-09T10:34:29.621Z,1029.27
2018-07-09T10:35:29.626Z,1029.29
2018-07-09T10:36:29.633Z,1029.33
2018-07-09T10:37:29.639Z,1029.41
2018-07-09T10:38:29.644Z,1029.34
2018-07-09T10:39:29.678Z,1029.43
2018-07-09T10:40:29.657Z,1029.4
2018-07-09T10:41:29.663Z,1029.37
2018-07-09T10:42:29.672Z,1029.35
2018-07-09T10:43:29.679Z,1029.35
2018-07-09T10:44:29.682Z,1029.37
2018-07-09T10:45:29.689Z,1029.38
2018-07-09T10:46:29.693Z,1029.29
2018-07-09T10:47:29.705Z,1029.29
2018-07-09T10:48:29.707Z,1029.34
2018-07-09T10:49:29.714Z,1029.3
2018-07-09T10:50:29.720Z,1029.32
2018-07-09T10:51:29.725Z,1029.37
2018-07-09T10:52:29.730Z,1029.44
2018-07-09T10:53:29.737Z,1029.5
2018-07-09T10:54:29.743Z,1029.6
2018-07-09T10:55:29.750Z,1029.61
2018-07-09T10:56:29.755Z,1029.7
2018-07-09T10:57:29.761Z,1029.77
2018-07-09T10:58:29.767Z,1029.84
2018-07-09T10:59:29.772Z,1029.87
2018-07-09T11:00:29.779Z,1029.99
2018-07-09T11:01:29.791Z,1030.01
2018-07-09T11:02:29.791Z,1030.07
2018-07-09T11:03:29.799Z,1030.13
2018-07-09T11:04:29.800Z,1030.13
2018-07-09T11:05:29.810Z,1030.12
2018-07-09T11:06:29.811Z,1030.25
2018-07-09T11:07:29.815Z,1030.29
2018-07-09T11:08:29.822Z,1030.33
2018-07-09T11:09:29.829Z,1030.34
2018-07-09T11:10:29.831Z,1030.33
2018-07-09T11:11:29.835Z,1030.32
2018-07-09T11:12:29.840Z,1030.34
2018-07-09T11:13:29.849Z,1030.31
2018-07-09T11:14:29.849Z,1030.36
2018-07-09T11:15:29.854Z,1030.31
2018-07-09T11:16:29.860Z,1030.36
2018-07-09T11:17:29.863Z,1030.3
2018-07-09T11:18:29.873Z,1030.29
2018-07-09T11:19:29.872Z,1030.36
2018-07-09T11:20:29.882Z,1030.43
2018-07-09T11:21:29.909Z,1030.41
2018-07-09T11:22:29.888Z,1030.39
2018-07-09T11:23:29.892Z,1030.44
2018-07-09T11:24:29.894Z,1030.34
2018-07-09T11:25:29.898Z,1030.47
2018-07-09T11:26:29.901Z,1030.43
2018-07-09T11:27:29.906Z,1030.39
2018-07-09T11:28:29.912Z,1030.41
2018-07-09T11:29:29.913Z,1030.39
2018-07-09T11:30:29.920Z,1030.37
2018-07-09T11:31:29.929Z,1030.41
2018-07-09T11:32:29.925Z,1030.47
2018-07-09T11:33:29.930Z,1030.45
2018-07-09T11:34:29.940Z,1030.48
2018-07-09T11:35:29.938Z,1030.52
2018-07-09T11:36:30.042Z,1030.48
2018-07-09T11:37:29.945Z,1030.4
2018-07-09T11:38:29.949Z,1030.43
2018-07-09T11:39:29.953Z,1030.4
2018-07-09T11:40:29.956Z,1030.44
2018-07-09T11:41:29.959Z,1030.33
2018-07-09T11:42:29.963Z,1030.32
2018-07-09T11:43:29.967Z,1030.32
2018-07-09T11:44:29.971Z,1030.34
2018-07-09T11:45:29.974Z,1030.34
2018-07-09T11:46:29.978Z,1030.36
2018-07-09T11:47:29.981Z,1030.3
2018-07-09T11:48:29.988Z,1030.3
2018-07-09T11:49:29.992Z,1030.41
2018-07-09T11:50:29.993Z,1030.41
2018-07-09T11:51:29.995Z,1030.47
2018-07-09T11:52:30.000Z,1030.47
2018-07-09T11:53:30.006Z,1030.5
2018-07-09T11:54:30.014Z,1030.53
2018-07-09T11:55:30.011Z,1030.46
2018-07-09T11:56:30.014Z,1030.47
2018-07-09T11:57:30.020Z,1030.55
2018-07-09T11:58:30.023Z,1030.53
2018-07-09T11:59:30.029Z,1030.52
2018-07-09T12:00:30.031Z,1030.59
2018-07-09T12:01:30.031Z,1030.6
2018-07-09T12:02:30.033Z,1030.66
2018-07-09T12:03:30.034Z,1030.63
2018-07-09T12:04:30.038Z,1030.64
2018-07-09T12:05:30.040Z,1030.64
2018-07-09T12:06:30.044Z,1030.57
2018-07-09T12:07:30.047Z,1030.55
2018-07-09T12:08:30.050Z,1030.56
2018-07-09T12:09:30.056Z,1030.6
2018-07-09T12:10:30.054Z,1030.6